Rising Fawn, Georgia
Current Conditions -  °F | °C
As of 12:55 AM on Sunday 23 Nov 2014 (Local Time) from K4A9 Reporting Station
Overcast Overcast  
Wind Chill: 12°   Ceiling: 2300
Heat Index: 12°   Visibility: 10mi
Dew Point: -3°   Wind: 6mph
Humidity: 35%   Direction: 140°SE
Pressure: 30.12"   Gusts: NA
Location:  34.76°N, 85.53°W
Report Text: K4A9 230555Z AUTO 14005KT 10SM OVC023 12/M03 A3012 RMK AO2
Loading
Personal Weather Stations






























Interactive Weather Map New forecast layout! Learn more

10-Day Weather Forecast

Advertisements
Track Severe Weather on mobile